sensor_id;sensor_type;location;lat;lon;timestamp;P1;durP1;ratioP1;P2;durP2;ratioP2
51686;SDS011;37774;52.192;4.584;2023-02-19T00:01:41;28.27;;;3.92;;
51686;SDS011;37774;52.192;4.584;2023-02-19T00:04:11;22.60;;;3.00;;
51686;SDS011;37774;52.192;4.584;2023-02-19T00:06:39;35.97;;;4.47;;
51686;SDS011;37774;52.192;4.584;2023-02-19T00:09:09;29.17;;;3.33;;
51686;SDS011;37774;52.192;4.584;2023-02-19T00:11:36;11.38;;;2.80;;
51686;SDS011;37774;52.192;4.584;2023-02-19T00:14:04;21.55;;;2.95;;
51686;SDS011;37774;52.192;4.584;2023-02-19T00:16:32;17.60;;;3.50;;
51686;SDS011;37774;52.192;4.584;2023-02-19T00:19:01;20.27;;;3.05;;
51686;SDS011;37774;52.192;4.584;2023-02-19T00:21:30;21.50;;;3.78;;
51686;SDS011;37774;52.192;4.584;2023-02-19T00:23:57;29.50;;;3.88;;
51686;SDS011;37774;52.192;4.584;2023-02-19T00:26:27;25.85;;;3.25;;
51686;SDS011;37774;52.192;4.584;2023-02-19T00:28:54;30.95;;;3.65;;
51686;SDS011;37774;52.192;4.584;2023-02-19T00:31:22;16.38;;;3.40;;
51686;SDS011;37774;52.192;4.584;2023-02-19T00:33:51;16.45;;;3.13;;
51686;SDS011;37774;52.192;4.584;2023-02-19T00:36:19;17.17;;;2.83;;
51686;SDS011;37774;52.192;4.584;2023-02-19T00:38:47;17.58;;;3.13;;
51686;SDS011;37774;52.192;4.584;2023-02-19T00:41:14;28.00;;;3.95;;
51686;SDS011;37774;52.192;4.584;2023-02-19T00:43:47;18.88;;;2.95;;
51686;SDS011;37774;52.192;4.584;2023-02-19T00:46:15;19.02;;;3.20;;
51686;SDS011;37774;52.192;4.584;2023-02-19T00:48:43;13.55;;;2.88;;
51686;SDS011;37774;52.192;4.584;2023-02-19T00:51:10;23.13;;;3.55;;
51686;SDS011;37774;52.192;4.584;2023-02-19T00:53:37;27.80;;;4.10;;
51686;SDS011;37774;52.192;4.584;2023-02-19T00:56:04;22.25;;;3.55;;
51686;SDS011;37774;52.192;4.584;2023-02-19T00:58:32;22.33;;;3.20;;
51686;SDS011;37774;52.192;4.584;2023-02-19T01:01:01;28.30;;;3.83;;
51686;SDS011;37774;52.192;4.584;2023-02-19T01:03:28;24.60;;;3.22;;
51686;SDS011;37774;52.192;4.584;2023-02-19T01:05:55;15.30;;;2.40;;
51686;SDS011;37774;52.192;4.584;2023-02-19T01:08:21;25.63;;;3.75;;
51686;SDS011;37774;52.192;4.584;2023-02-19T01:10:48;19.85;;;3.40;;
51686;SDS011;37774;52.192;4.584;2023-02-19T01:13:15;18.70;;;2.55;;
51686;SDS011;37774;52.192;4.584;2023-02-19T01:15:43;21.05;;;2.95;;
51686;SDS011;37774;52.192;4.584;2023-02-19T01:18:11;16.60;;;2.80;;
51686;SDS011;37774;52.192;4.584;2023-02-19T01:20:38;13.88;;;3.63;;
51686;SDS011;37774;52.192;4.584;2023-02-19T01:23:06;18.73;;;2.88;;
51686;SDS011;37774;52.192;4.584;2023-02-19T01:25:33;15.07;;;2.95;;
51686;SDS011;37774;52.192;4.584;2023-02-19T01:28:00;13.07;;;2.53;;
51686;SDS011;37774;52.192;4.584;2023-02-19T01:30:27;14.85;;;3.10;;
51686;SDS011;37774;52.192;4.584;2023-02-19T01:32:54;13.52;;;2.67;;
51686;SDS011;37774;52.192;4.584;2023-02-19T01:35:22;21.67;;;3.53;;
51686;SDS011;37774;52.192;4.584;2023-02-19T01:37:49;10.98;;;2.58;;
51686;SDS011;37774;52.192;4.584;2023-02-19T01:40:16;12.90;;;2.40;;
51686;SDS011;37774;52.192;4.584;2023-02-19T01:42:43;14.13;;;2.55;;
51686;SDS011;37774;52.192;4.584;2023-02-19T01:45:15;23.80;;;3.15;;
51686;SDS011;37774;52.192;4.584;2023-02-19T01:47:48;22.25;;;3.03;;
51686;SDS011;37774;52.192;4.584;2023-02-19T01:50:18;20.27;;;3.17;;
51686;SDS011;37774;52.192;4.584;2023-02-19T01:52:47;13.75;;;2.85;;
51686;SDS011;37774;52.192;4.584;2023-02-19T01:55:14;12.57;;;2.67;;
51686;SDS011;37774;52.192;4.584;2023-02-19T01:57:43;15.88;;;2.95;;
51686;SDS011;37774;52.192;4.584;2023-02-19T02:00:13;21.90;;;4.25;;
51686;SDS011;37774;52.192;4.584;2023-02-19T02:02:42;34.33;;;4.78;;
51686;SDS011;37774;52.192;4.584;2023-02-19T02:05:14;17.00;;;3.20;;
51686;SDS011;37774;52.192;4.584;2023-02-19T02:07:50;19.65;;;3.58;;
51686;SDS011;37774;52.192;4.584;2023-02-19T02:10:34;14.15;;;3.30;;
51686;SDS011;37774;52.192;4.584;2023-02-19T02:13:02;16.45;;;2.90;;
51686;SDS011;37774;52.192;4.584;2023-02-19T02:15:32;18.77;;;3.58;;
51686;SDS011;37774;52.192;4.584;2023-02-19T02:18:05;23.17;;;3.70;;
51686;SDS011;37774;52.192;4.584;2023-02-19T02:20:49;27.48;;;3.65;;
51686;SDS011;37774;52.192;4.584;2023-02-19T02:23:34;25.67;;;5.22;;
51686;SDS011;37774;52.192;4.584;2023-02-19T02:26:23;18.05;;;3.80;;
51686;SDS011;37774;52.192;4.584;2023-02-19T02:29:21;38.25;;;3.75;;
51686;SDS011;37774;52.192;4.584;2023-02-19T02:32:04;19.40;;;2.83;;
51686;SDS011;37774;52.192;4.584;2023-02-19T02:34:38;25.27;;;3.70;;
51686;SDS011;37774;52.192;4.584;2023-02-19T02:37:11;20.13;;;3.20;;
51686;SDS011;37774;52.192;4.584;2023-02-19T02:39:40;35.90;;;3.83;;
51686;SDS011;37774;52.192;4.584;2023-02-19T02:42:07;14.93;;;3.50;;
51686;SDS011;37774;52.192;4.584;2023-02-19T02:44:52;12.80;;;3.03;;
51686;SDS011;37774;52.192;4.584;2023-02-19T02:47:40;15.48;;;3.65;;
51686;SDS011;37774;52.192;4.584;2023-02-19T02:50:11;16.92;;;2.92;;
51686;SDS011;37774;52.192;4.584;2023-02-19T02:52:41;15.80;;;3.15;;
51686;SDS011;37774;52.192;4.584;2023-02-19T02:55:29;14.52;;;3.63;;
51686;SDS011;37774;52.192;4.584;2023-02-19T02:58:00;28.77;;;3.47;;
51686;SDS011;37774;52.192;4.584;2023-02-19T03:00:27;17.40;;;2.63;;
51686;SDS011;37774;52.192;4.584;2023-02-19T03:03:22;17.17;;;3.40;;
51686;SDS011;37774;52.192;4.584;2023-02-19T03:05:51;14.13;;;2.78;;
51686;SDS011;37774;52.192;4.584;2023-02-19T03:08:24;15.68;;;3.03;;
51686;SDS011;37774;52.192;4.584;2023-02-19T03:10:57;13.13;;;2.22;;
51686;SDS011;37774;52.192;4.584;2023-02-19T03:13:47;21.27;;;2.60;;
51686;SDS011;37774;52.192;4.584;2023-02-19T03:16:36;12.85;;;2.70;;
51686;SDS011;37774;52.192;4.584;2023-02-19T03:19:26;23.10;;;2.67;;
51686;SDS011;37774;52.192;4.584;2023-02-19T03:21:58;14.10;;;2.55;;
51686;SDS011;37774;52.192;4.584;2023-02-19T03:24:27;20.17;;;2.92;;
51686;SDS011;37774;52.192;4.584;2023-02-19T03:27:14;18.00;;;2.72;;
51686;SDS011;37774;52.192;4.584;2023-02-19T03:29:44;29.17;;;3.30;;
51686;SDS011;37774;52.192;4.584;2023-02-19T03:32:16;8.82;;;2.72;;
51686;SDS011;37774;52.192;4.584;2023-02-19T03:34:48;27.17;;;2.78;;
51686;SDS011;37774;52.192;4.584;2023-02-19T03:37:20;31.23;;;4.10;;
51686;SDS011;37774;52.192;4.584;2023-02-19T03:39:53;20.98;;;3.90;;
51686;SDS011;37774;52.192;4.584;2023-02-19T03:42:23;14.57;;;2.67;;
51686;SDS011;37774;52.192;4.584;2023-02-19T03:45:08;21.50;;;2.80;;
51686;SDS011;37774;52.192;4.584;2023-02-19T03:47:51;20.80;;;3.30;;
51686;SDS011;37774;52.192;4.584;2023-02-19T03:50:26;14.05;;;2.90;;
51686;SDS011;37774;52.192;4.584;2023-02-19T03:52:58;16.50;;;3.05;;
51686;SDS011;37774;52.192;4.584;2023-02-19T03:55:35;14.90;;;3.20;;
51686;SDS011;37774;52.192;4.584;2023-02-19T03:58:11;29.63;;;3.70;;
51686;SDS011;37774;52.192;4.584;2023-02-19T04:00:42;15.23;;;2.85;;
51686;SDS011;37774;52.192;4.584;2023-02-19T04:03:17;20.02;;;3.40;;
51686;SDS011;37774;52.192;4.584;2023-02-19T04:06:01;17.10;;;2.67;;
51686;SDS011;37774;52.192;4.584;2023-02-19T04:08:36;21.60;;;3.63;;
51686;SDS011;37774;52.192;4.584;2023-02-19T04:11:07;20.13;;;2.80;;
51686;SDS011;37774;52.192;4.584;2023-02-19T04:13:37;20.75;;;3.25;;
51686;SDS011;37774;52.192;4.584;2023-02-19T04:16:10;24.92;;;4.13;;
51686;SDS011;37774;52.192;4.584;2023-02-19T04:18:43;28.98;;;3.90;;
51686;SDS011;37774;52.192;4.584;2023-02-19T04:21:14;18.85;;;3.28;;
51686;SDS011;37774;52.192;4.584;2023-02-19T04:23:42;18.58;;;2.17;;
51686;SDS011;37774;52.192;4.584;2023-02-19T04:26:11;28.00;;;2.75;;
51686;SDS011;37774;52.192;4.584;2023-02-19T04:28:40;29.38;;;2.83;;
51686;SDS011;37774;52.192;4.584;2023-02-19T04:31:08;16.17;;;2.47;;
51686;SDS011;37774;52.192;4.584;2023-02-19T04:33:36;10.65;;;2.20;;
51686;SDS011;37774;52.192;4.584;2023-02-19T04:36:03;22.40;;;3.67;;
51686;SDS011;37774;52.192;4.584;2023-02-19T04:38:32;29.85;;;2.45;;
51686;SDS011;37774;52.192;4.584;2023-02-19T04:40:59;26.08;;;3.30;;
51686;SDS011;37774;52.192;4.584;2023-02-19T04:43:26;18.67;;;2.80;;
51686;SDS011;37774;52.192;4.584;2023-02-19T04:45:52;18.58;;;2.65;;
51686;SDS011;37774;52.192;4.584;2023-02-19T04:48:19;17.80;;;2.30;;
51686;SDS011;37774;52.192;4.584;2023-02-19T04:50:46;21.73;;;2.88;;
51686;SDS011;37774;52.192;4.584;2023-02-19T04:53:13;12.93;;;2.70;;
51686;SDS011;37774;52.192;4.584;2023-02-19T04:55:42;27.10;;;3.35;;
51686;SDS011;37774;52.192;4.584;2023-02-19T04:58:09;20.52;;;2.40;;
51686;SDS011;37774;52.192;4.584;2023-02-19T05:00:36;16.33;;;2.85;;
51686;SDS011;37774;52.192;4.584;2023-02-19T05:03:02;7.15;;;2.20;;
51686;SDS011;37774;52.192;4.584;2023-02-19T05:05:29;28.67;;;2.97;;
51686;SDS011;37774;52.192;4.584;2023-02-19T05:07:56;15.35;;;3.35;;
51686;SDS011;37774;52.192;4.584;2023-02-19T05:10:23;12.52;;;2.15;;
51686;SDS011;37774;52.192;4.584;2023-02-19T05:12:51;16.80;;;3.70;;
51686;SDS011;37774;52.192;4.584;2023-02-19T05:15:20;23.00;;;2.58;;
51686;SDS011;37774;52.192;4.584;2023-02-19T05:17:47;16.23;;;2.88;;
51686;SDS011;37774;52.192;4.584;2023-02-19T05:20:14;17.85;;;2.78;;
51686;SDS011;37774;52.192;4.584;2023-02-19T05:22:41;14.07;;;2.35;;
51686;SDS011;37774;52.192;4.584;2023-02-19T05:25:08;12.20;;;3.38;;
51686;SDS011;37774;52.192;4.584;2023-02-19T05:27:35;20.42;;;2.22;;
51686;SDS011;37774;52.192;4.584;2023-02-19T05:30:03;7.38;;;1.52;;
51686;SDS011;37774;52.192;4.584;2023-02-19T05:32:30;16.60;;;2.60;;
51686;SDS011;37774;52.192;4.584;2023-02-19T05:34:57;15.18;;;2.65;;
51686;SDS011;37774;52.192;4.584;2023-02-19T05:37:24;11.25;;;2.25;;
51686;SDS011;37774;52.192;4.584;2023-02-19T05:39:50;19.52;;;2.38;;
51686;SDS011;37774;52.192;4.584;2023-02-19T05:42:17;16.48;;;3.00;;
51686;SDS011;37774;52.192;4.584;2023-02-19T05:44:44;7.85;;;2.92;;
51686;SDS011;37774;52.192;4.584;2023-02-19T05:47:12;12.82;;;3.53;;
51686;SDS011;37774;52.192;4.584;2023-02-19T05:49:39;14.30;;;3.05;;
51686;SDS011;37774;52.192;4.584;2023-02-19T05:52:06;13.27;;;2.83;;
51686;SDS011;37774;52.192;4.584;2023-02-19T05:54:33;16.05;;;3.10;;
51686;SDS011;37774;52.192;4.584;2023-02-19T05:56:59;14.43;;;3.53;;
51686;SDS011;37774;52.192;4.584;2023-02-19T05:59:26;23.40;;;2.90;;
51686;SDS011;37774;52.192;4.584;2023-02-19T06:01:53;18.70;;;2.63;;
51686;SDS011;37774;52.192;4.584;2023-02-19T06:04:23;7.32;;;2.08;;
51686;SDS011;37774;52.192;4.584;2023-02-19T06:06:50;17.23;;;2.63;;
51686;SDS011;37774;52.192;4.584;2023-02-19T06:09:17;15.68;;;2.00;;
51686;SDS011;37774;52.192;4.584;2023-02-19T06:11:46;17.60;;;3.33;;
51686;SDS011;37774;52.192;4.584;2023-02-19T06:14:13;17.00;;;2.58;;
51686;SDS011;37774;52.192;4.584;2023-02-19T06:16:40;15.95;;;3.28;;
51686;SDS011;37774;52.192;4.584;2023-02-19T06:19:07;16.38;;;3.05;;
51686;SDS011;37774;52.192;4.584;2023-02-19T06:21:36;19.77;;;3.08;;
51686;SDS011;37774;52.192;4.584;2023-02-19T06:24:03;14.63;;;2.58;;
51686;SDS011;37774;52.192;4.584;2023-02-19T06:26:32;14.35;;;2.25;;
51686;SDS011;37774;52.192;4.584;2023-02-19T06:28:59;22.45;;;3.35;;
51686;SDS011;37774;52.192;4.584;2023-02-19T06:31:26;25.13;;;3.88;;
51686;SDS011;37774;52.192;4.584;2023-02-19T06:33:52;22.13;;;4.20;;
51686;SDS011;37774;52.192;4.584;2023-02-19T06:36:20;16.40;;;3.13;;
51686;SDS011;37774;52.192;4.584;2023-02-19T06:38:49;8.98;;;2.47;;
51686;SDS011;37774;52.192;4.584;2023-02-19T06:41:17;29.10;;;3.65;;
51686;SDS011;37774;52.192;4.584;2023-02-19T06:43:44;18.42;;;2.75;;
51686;SDS011;37774;52.192;4.584;2023-02-19T06:46:11;13.45;;;2.63;;
51686;SDS011;37774;52.192;4.584;2023-02-19T06:48:39;14.20;;;3.28;;
51686;SDS011;37774;52.192;4.584;2023-02-19T06:51:07;18.60;;;4.55;;
51686;SDS011;37774;52.192;4.584;2023-02-19T06:53:37;13.63;;;4.00;;
51686;SDS011;37774;52.192;4.584;2023-02-19T06:56:06;18.83;;;4.03;;
51686;SDS011;37774;52.192;4.584;2023-02-19T06:58:47;15.30;;;3.33;;
51686;SDS011;37774;52.192;4.584;2023-02-19T07:01:14;6.55;;;2.92;;
51686;SDS011;37774;52.192;4.584;2023-02-19T07:03:42;13.38;;;4.28;;
51686;SDS011;37774;52.192;4.584;2023-02-19T07:06:09;12.00;;;2.67;;
51686;SDS011;37774;52.192;4.584;2023-02-19T07:08:36;7.32;;;2.60;;
51686;SDS011;37774;52.192;4.584;2023-02-19T07:11:03;27.52;;;2.92;;
51686;SDS011;37774;52.192;4.584;2023-02-19T07:13:31;7.57;;;2.50;;
51686;SDS011;37774;52.192;4.584;2023-02-19T07:16:00;20.50;;;3.22;;
51686;SDS011;37774;52.192;4.584;2023-02-19T07:18:28;10.82;;;3.17;;
51686;SDS011;37774;52.192;4.584;2023-02-19T07:21:00;12.20;;;2.50;;
51686;SDS011;37774;52.192;4.584;2023-02-19T07:23:28;15.10;;;3.00;;
51686;SDS011;37774;52.192;4.584;2023-02-19T07:25:55;17.83;;;2.53;;
51686;SDS011;37774;52.192;4.584;2023-02-19T07:28:22;18.88;;;3.42;;
51686;SDS011;37774;52.192;4.584;2023-02-19T07:30:50;20.63;;;3.60;;
51686;SDS011;37774;52.192;4.584;2023-02-19T07:33:17;25.20;;;3.80;;
51686;SDS011;37774;52.192;4.584;2023-02-19T07:35:45;10.68;;;2.88;;
51686;SDS011;37774;52.192;4.584;2023-02-19T07:38:14;13.93;;;2.97;;
51686;SDS011;37774;52.192;4.584;2023-02-19T07:40:41;11.90;;;3.25;;
51686;SDS011;37774;52.192;4.584;2023-02-19T07:43:08;23.55;;;3.78;;
51686;SDS011;37774;52.192;4.584;2023-02-19T07:45:34;18.88;;;3.25;;
51686;SDS011;37774;52.192;4.584;2023-02-19T07:48:03;15.05;;;2.70;;
51686;SDS011;37774;52.192;4.584;2023-02-19T07:50:30;18.13;;;3.13;;
51686;SDS011;37774;52.192;4.584;2023-02-19T07:52:56;10.18;;;3.58;;
51686;SDS011;37774;52.192;4.584;2023-02-19T07:55:24;29.95;;;3.55;;
51686;SDS011;37774;52.192;4.584;2023-02-19T07:57:50;17.63;;;3.33;;
51686;SDS011;37774;52.192;4.584;2023-02-19T08:00:17;10.77;;;2.85;;
51686;SDS011;37774;52.192;4.584;2023-02-19T08:02:45;16.92;;;2.70;;
51686;SDS011;37774;52.192;4.584;2023-02-19T08:05:29;20.15;;;2.92;;
51686;SDS011;37774;52.192;4.584;2023-02-19T08:07:57;18.10;;;4.25;;
51686;SDS011;37774;52.192;4.584;2023-02-19T08:10:24;26.55;;;3.58;;
51686;SDS011;37774;52.192;4.584;2023-02-19T08:13:05;16.58;;;4.15;;
51686;SDS011;37774;52.192;4.584;2023-02-19T08:15:51;17.88;;;3.35;;
51686;SDS011;37774;52.192;4.584;2023-02-19T08:18:19;24.83;;;4.30;;
51686;SDS011;37774;52.192;4.584;2023-02-19T08:20:49;15.30;;;3.92;;
51686;SDS011;37774;52.192;4.584;2023-02-19T08:23:16;13.57;;;2.92;;
51686;SDS011;37774;52.192;4.584;2023-02-19T08:25:44;21.90;;;3.95;;
51686;SDS011;37774;52.192;4.584;2023-02-19T08:28:12;15.32;;;4.30;;
51686;SDS011;37774;52.192;4.584;2023-02-19T08:30:40;12.90;;;2.63;;
51686;SDS011;37774;52.192;4.584;2023-02-19T08:33:08;14.27;;;3.28;;
51686;SDS011;37774;52.192;4.584;2023-02-19T08:35:36;12.77;;;2.90;;
51686;SDS011;37774;52.192;4.584;2023-02-19T08:38:06;13.70;;;3.20;;
51686;SDS011;37774;52.192;4.584;2023-02-19T08:40:35;13.68;;;3.10;;
51686;SDS011;37774;52.192;4.584;2023-02-19T08:43:03;23.50;;;4.40;;
51686;SDS011;37774;52.192;4.584;2023-02-19T08:45:31;24.40;;;4.13;;
51686;SDS011;37774;52.192;4.584;2023-02-19T08:47:59;11.40;;;3.25;;
51686;SDS011;37774;52.192;4.584;2023-02-19T08:50:26;17.02;;;3.15;;
51686;SDS011;37774;52.192;4.584;2023-02-19T08:52:53;28.25;;;4.15;;
51686;SDS011;37774;52.192;4.584;2023-02-19T08:55:21;23.58;;;3.22;;
51686;SDS011;37774;52.192;4.584;2023-02-19T08:57:48;22.77;;;3.90;;
51686;SDS011;37774;52.192;4.584;2023-02-19T09:00:15;30.48;;;4.25;;
51686;SDS011;37774;52.192;4.584;2023-02-19T09:02:42;28.73;;;3.55;;
51686;SDS011;37774;52.192;4.584;2023-02-19T09:05:09;18.52;;;4.00;;
51686;SDS011;37774;52.192;4.584;2023-02-19T09:07:37;5.82;;;2.35;;
51686;SDS011;37774;52.192;4.584;2023-02-19T09:10:05;25.60;;;5.03;;
51686;SDS011;37774;52.192;4.584;2023-02-19T09:12:34;24.80;;;3.58;;
51686;SDS011;37774;52.192;4.584;2023-02-19T09:15:02;21.00;;;3.08;;
51686;SDS011;37774;52.192;4.584;2023-02-19T09:17:30;21.80;;;2.92;;
51686;SDS011;37774;52.192;4.584;2023-02-19T09:19:57;17.27;;;3.70;;
51686;SDS011;37774;52.192;4.584;2023-02-19T09:22:24;11.00;;;3.03;;
51686;SDS011;37774;52.192;4.584;2023-02-19T09:24:50;14.02;;;3.20;;
51686;SDS011;37774;52.192;4.584;2023-02-19T09:27:18;23.38;;;3.47;;
51686;SDS011;37774;52.192;4.584;2023-02-19T09:29:47;23.00;;;3.55;;
51686;SDS011;37774;52.192;4.584;2023-02-19T09:32:13;17.67;;;2.25;;
51686;SDS011;37774;52.192;4.584;2023-02-19T09:34:40;21.95;;;3.08;;
51686;SDS011;37774;52.192;4.584;2023-02-19T09:37:07;22.88;;;3.30;;
51686;SDS011;37774;52.192;4.584;2023-02-19T09:39:34;18.77;;;2.88;;
51686;SDS011;37774;52.192;4.584;2023-02-19T09:42:02;28.40;;;2.95;;
51686;SDS011;37774;52.192;4.584;2023-02-19T09:44:36;24.13;;;3.13;;
51686;SDS011;37774;52.192;4.584;2023-02-19T09:47:08;16.40;;;3.47;;
51686;SDS011;37774;52.192;4.584;2023-02-19T09:49:42;22.95;;;3.08;;
51686;SDS011;37774;52.192;4.584;2023-02-19T09:52:16;18.02;;;2.17;;
51686;SDS011;37774;52.192;4.584;2023-02-19T09:54:49;22.05;;;2.08;;
51686;SDS011;37774;52.192;4.584;2023-02-19T09:57:21;21.33;;;3.10;;
51686;SDS011;37774;52.192;4.584;2023-02-19T09:59:50;17.67;;;1.83;;
51686;SDS011;37774;52.192;4.584;2023-02-19T10:02:23;11.27;;;1.90;;
51686;SDS011;37774;52.192;4.584;2023-02-19T10:04:51;10.82;;;2.55;;
51686;SDS011;37774;52.192;4.584;2023-02-19T10:07:20;24.95;;;2.88;;
51686;SDS011;37774;52.192;4.584;2023-02-19T10:09:50;19.85;;;2.40;;
51686;SDS011;37774;52.192;4.584;2023-02-19T10:12:22;28.15;;;2.60;;
51686;SDS011;37774;52.192;4.584;2023-02-19T10:14:52;9.10;;;1.85;;
51686;SDS011;37774;52.192;4.584;2023-02-19T10:17:28;11.70;;;1.88;;
51686;SDS011;37774;52.192;4.584;2023-02-19T10:19:58;10.73;;;2.47;;
51686;SDS011;37774;52.192;4.584;2023-02-19T10:22:27;20.55;;;2.60;;
51686;SDS011;37774;52.192;4.584;2023-02-19T10:24:55;12.93;;;2.35;;
51686;SDS011;37774;52.192;4.584;2023-02-19T10:27:24;10.98;;;2.33;;
51686;SDS011;37774;52.192;4.584;2023-02-19T10:29:51;7.55;;;2.20;;
51686;SDS011;37774;52.192;4.584;2023-02-19T10:32:19;5.72;;;1.75;;
51686;SDS011;37774;52.192;4.584;2023-02-19T10:34:51;7.45;;;1.55;;
51686;SDS011;37774;52.192;4.584;2023-02-19T10:37:33;16.52;;;2.30;;
51686;SDS011;37774;52.192;4.584;2023-02-19T10:40:01;12.27;;;3.03;;
51686;SDS011;37774;52.192;4.584;2023-02-19T10:42:28;26.55;;;2.78;;
51686;SDS011;37774;52.192;4.584;2023-02-19T10:44:56;13.18;;;2.20;;
51686;SDS011;37774;52.192;4.584;2023-02-19T10:47:27;19.77;;;2.72;;
51686;SDS011;37774;52.192;4.584;2023-02-19T10:49:58;8.63;;;2.30;;
51686;SDS011;37774;52.192;4.584;2023-02-19T10:52:26;4.45;;;1.98;;
51686;SDS011;37774;52.192;4.584;2023-02-19T10:54:56;13.68;;;2.63;;
51686;SDS011;37774;52.192;4.584;2023-02-19T10:57:40;9.23;;;1.70;;
51686;SDS011;37774;52.192;4.584;2023-02-19T11:00:18;7.40;;;2.05;;
51686;SDS011;37774;52.192;4.584;2023-02-19T11:02:48;9.95;;;1.90;;
51686;SDS011;37774;52.192;4.584;2023-02-19T11:05:17;6.13;;;1.40;;
51686;SDS011;37774;52.192;4.584;2023-02-19T11:07:48;17.17;;;1.83;;
51686;SDS011;37774;52.192;4.584;2023-02-19T11:10:19;4.22;;;1.23;;
51686;SDS011;37774;52.192;4.584;2023-02-19T11:12:51;2.63;;;1.23;;
51686;SDS011;37774;52.192;4.584;2023-02-19T11:15:20;4.38;;;1.40;;
51686;SDS011;37774;52.192;4.584;2023-02-19T11:18:00;3.75;;;1.38;;
51686;SDS011;37774;52.192;4.584;2023-02-19T11:20:31;3.17;;;1.52;;
51686;SDS011;37774;52.192;4.584;2023-02-19T11:22:59;9.48;;;1.38;;
51686;SDS011;37774;52.192;4.584;2023-02-19T11:25:29;1.88;;;1.10;;
51686;SDS011;37774;52.192;4.584;2023-02-19T11:27:57;3.15;;;0.98;;
51686;SDS011;37774;52.192;4.584;2023-02-19T11:30:35;2.13;;;0.73;;
51686;SDS011;37774;52.192;4.584;2023-02-19T11:33:20;3.42;;;0.88;;
51686;SDS011;37774;52.192;4.584;2023-02-19T11:35:54;1.13;;;0.65;;
51686;SDS011;37774;52.192;4.584;2023-02-19T11:38:36;2.35;;;0.70;;
51686;SDS011;37774;52.192;4.584;2023-02-19T11:41:05;4.47;;;1.30;;
51686;SDS011;37774;52.192;4.584;2023-02-19T11:43:46;11.23;;;1.42;;
51686;SDS011;37774;52.192;4.584;2023-02-19T11:46:24;2.15;;;0.75;;
51686;SDS011;37774;52.192;4.584;2023-02-19T11:49:03;1.52;;;0.65;;
51686;SDS011;37774;52.192;4.584;2023-02-19T11:51:53;2.53;;;0.55;;
51686;SDS011;37774;52.192;4.584;2023-02-19T11:57:19;5.82;;;0.70;;
51686;SDS011;37774;52.192;4.584;2023-02-19T11:59:56;3.63;;;0.70;;
51686;SDS011;37774;52.192;4.584;2023-02-19T12:02:37;1.70;;;0.80;;
51686;SDS011;37774;52.192;4.584;2023-02-19T12:05:19;1.48;;;0.52;;
51686;SDS011;37774;52.192;4.584;2023-02-19T12:10:56;2.30;;;0.50;;
51686;SDS011;37774;52.192;4.584;2023-02-19T12:16:40;1.10;;;0.30;;
51686;SDS011;37774;52.192;4.584;2023-02-19T12:19:17;1.13;;;0.25;;
51686;SDS011;37774;52.192;4.584;2023-02-19T12:21:57;0.50;;;0.40;;
51686;SDS011;37774;52.192;4.584;2023-02-19T12:24:42;4.28;;;0.40;;
51686;SDS011;37774;52.192;4.584;2023-02-19T12:27:25;1.02;;;0.77;;
51686;SDS011;37774;52.192;4.584;2023-02-19T12:30:16;0.32;;;0.15;;
51686;SDS011;37774;52.192;4.584;2023-02-19T12:33:02;1.85;;;0.40;;
51686;SDS011;37774;52.192;4.584;2023-02-19T12:35:49;1.65;;;0.30;;
51686;SDS011;37774;52.192;4.584;2023-02-19T12:38:27;0.50;;;0.10;;
51686;SDS011;37774;52.192;4.584;2023-02-19T12:43:49;0.20;;;0.17;;
51686;SDS011;37774;52.192;4.584;2023-02-19T12:46:19;0.17;;;0.10;;
51686;SDS011;37774;52.192;4.584;2023-02-19T12:51:45;1.00;;;0.30;;
51686;SDS011;37774;52.192;4.584;2023-02-19T12:54:16;1.08;;;0.10;;
51686;SDS011;37774;52.192;4.584;2023-02-19T12:59:56;0.10;;;0.10;;
51686;SDS011;37774;52.192;4.584;2023-02-19T13:03:08;0.47;;;0.17;;
51686;SDS011;37774;52.192;4.584;2023-02-19T13:05:45;5.18;;;0.20;;
51686;SDS011;37774;52.192;4.584;2023-02-19T13:08:18;0.35;;;0.10;;
51686;SDS011;37774;52.192;4.584;2023-02-19T13:10:54;0.43;;;0.10;;
51686;SDS011;37774;52.192;4.584;2023-02-19T13:13:26;2.33;;;0.30;;
51686;SDS011;37774;52.192;4.584;2023-02-19T13:15:55;0.45;;;0.15;;
51686;SDS011;37774;52.192;4.584;2023-02-19T13:18:27;0.75;;;0.20;;
51686;SDS011;37774;52.192;4.584;2023-02-19T13:20:59;0.20;;;0.10;;
51686;SDS011;37774;52.192;4.584;2023-02-19T13:23:27;0.30;;;0.17;;
51686;SDS011;37774;52.192;4.584;2023-02-19T13:26:18;1.15;;;0.10;;
51686;SDS011;37774;52.192;4.584;2023-02-19T13:29:10;0.20;;;0.20;;
51686;SDS011;37774;52.192;4.584;2023-02-19T13:31:58;0.13;;;0.10;;
51686;SDS011;37774;52.192;4.584;2023-02-19T13:34:46;0.30;;;0.20;;
51686;SDS011;37774;52.192;4.584;2023-02-19T13:37:21;2.55;;;0.20;;
51686;SDS011;37774;52.192;4.584;2023-02-19T13:39:49;0.15;;;0.15;;
51686;SDS011;37774;52.192;4.584;2023-02-19T13:42:24;0.65;;;0.20;;
51686;SDS011;37774;52.192;4.584;2023-02-19T13:44:54;1.23;;;0.38;;
51686;SDS011;37774;52.192;4.584;2023-02-19T13:50:19;0.20;;;0.20;;
51686;SDS011;37774;52.192;4.584;2023-02-19T13:52:48;3.03;;;0.22;;
51686;SDS011;37774;52.192;4.584;2023-02-19T14:04:21;0.22;;;0.13;;
51686;SDS011;37774;52.192;4.584;2023-02-19T14:09:46;0.45;;;0.28;;
51686;SDS011;37774;52.192;4.584;2023-02-19T14:12:17;1.27;;;0.50;;
51686;SDS011;37774;52.192;4.584;2023-02-19T14:14:45;7.00;;;0.88;;
51686;SDS011;37774;52.192;4.584;2023-02-19T14:20:08;0.17;;;0.17;;
51686;SDS011;37774;52.192;4.584;2023-02-19T14:23:14;6.88;;;0.50;;
51686;SDS011;37774;52.192;4.584;2023-02-19T14:28:21;0.55;;;0.22;;
51686;SDS011;37774;52.192;4.584;2023-02-19T14:30:55;0.55;;;0.40;;
51686;SDS011;37774;52.192;4.584;2023-02-19T14:33:26;0.80;;;0.38;;
51686;SDS011;37774;52.192;4.584;2023-02-19T14:35:57;0.47;;;0.30;;
51686;SDS011;37774;52.192;4.584;2023-02-19T14:38:29;11.00;;;0.80;;
51686;SDS011;37774;52.192;4.584;2023-02-19T14:41:01;0.80;;;0.40;;
51686;SDS011;37774;52.192;4.584;2023-02-19T14:43:29;1.40;;;0.50;;
51686;SDS011;37774;52.192;4.584;2023-02-19T14:45:59;0.88;;;0.43;;
51686;SDS011;37774;52.192;4.584;2023-02-19T14:48:30;1.30;;;0.32;;
51686;SDS011;37774;52.192;4.584;2023-02-19T14:51:05;2.63;;;0.30;;
51686;SDS011;37774;52.192;4.584;2023-02-19T14:53:38;4.67;;;0.23;;
51686;SDS011;37774;52.192;4.584;2023-02-19T14:56:15;1.33;;;0.30;;
51686;SDS011;37774;52.192;4.584;2023-02-19T14:58:46;0.75;;;0.50;;
51686;SDS011;37774;52.192;4.584;2023-02-19T15:01:31;0.95;;;0.30;;
51686;SDS011;37774;52.192;4.584;2023-02-19T15:03:58;0.63;;;0.40;;
51686;SDS011;37774;52.192;4.584;2023-02-19T15:06:26;2.92;;;0.45;;
51686;SDS011;37774;52.192;4.584;2023-02-19T15:08:56;1.70;;;0.30;;
51686;SDS011;37774;52.192;4.584;2023-02-19T15:11:26;1.13;;;0.35;;
51686;SDS011;37774;52.192;4.584;2023-02-19T15:13:56;1.23;;;0.32;;
51686;SDS011;37774;52.192;4.584;2023-02-19T15:16:25;0.32;;;0.10;;
51686;SDS011;37774;52.192;4.584;2023-02-19T15:18:54;0.60;;;0.40;;
51686;SDS011;37774;52.192;4.584;2023-02-19T15:21:26;1.27;;;0.47;;
51686;SDS011;37774;52.192;4.584;2023-02-19T15:23:56;2.28;;;0.80;;
51686;SDS011;37774;52.192;4.584;2023-02-19T15:26:26;4.32;;;0.63;;
51686;SDS011;37774;52.192;4.584;2023-02-19T15:28:59;1.15;;;0.43;;
51686;SDS011;37774;52.192;4.584;2023-02-19T15:31:28;1.20;;;0.20;;
51686;SDS011;37774;52.192;4.584;2023-02-19T15:33:55;2.10;;;0.43;;
51686;SDS011;37774;52.192;4.584;2023-02-19T15:36:23;1.55;;;0.28;;
51686;SDS011;37774;52.192;4.584;2023-02-19T15:38:54;5.70;;;0.47;;
51686;SDS011;37774;52.192;4.584;2023-02-19T15:41:25;0.13;;;0.13;;